Impacts TAF Board INFO
IDs:

KPDX - Portland Intl Arpt, OR, US

Issued at 2054 UTC 02 Dec 2016
Updated at 2217 UTC 02 Dec 2016
Potential Impact None Slight Moderate High
Time2153Z 02/23Z 03/00Z 03/01Z 03/02Z 03/03Z 03/04Z 03/05Z 03/06Z 03/07Z 03/08Z 03/09Z 03/10Z 03/11Z
Type OBS PRVL PRVL PRVL PRVL PRVL PRVL PRVL PRVL PRVL PRVL PRVL PRVL PRVL
VIS 10 >6 >6 >6 >6 >6 >6 >6 >6 >6 >6 >6 >6 >6
CIG 47 35 35 35 35 35 35 20 20 20 25 25 25 25
Cover OVC OVC OVC OVC OVC OVC OVC OVC OVC OVC OVC OVC OVC OVC
FltCat VFR VFR VFR VFR VFR VFR VFR MVFR MVFR MVFR MVFR MVFR MVFR MVFR
WX -- -RA -RA -RA -RA -RA -RA -SHRA -SHRA -SHRA VCSH VCSH VCSH VCSH
WDir 180 140 140 140 140 140 140 200 200 200 240 240 240 240
WSpd 4 10 10 10 10 10 10 7 7 7 4 4 4 4
WGst -- -- -- -- -- -- -- -- -- -- -- -- -- --

Raw TAF
KPDX 022054Z 0221/0318 15006KT P6SM -SHRA FEW015 OVC050
  FM022200 14010KT P6SM -RA SCT020 OVC035
  FM030500 20007KT P6SM -SHRA BKN020 OVC035
  FM030800 24004KT P6SM VCSH OVC025


Raw METAR
KPDX 022153Z 18004KT 10SM SCT012 OVC047 07/04 A3032 RMK AO2 RAB01E13 SLP266 P0000 T00720044
KPDX 022053Z 14007KT 10SM FEW015 OVC055 07/04 A3033 RMK AO2 RAE13B30E44 SLP268 P0000 60002 T00720044 58018
KPDX 021953Z 19006KT 9SM -RA OVC055 07/04 A3036 RMK AO2 RAE07B24 SLP280 P0002 T00720044

METAR Board
Radar Display
Forecast Discussion